createdAt,value
2019-01-06T00:02:18.484Z,5.40
2019-01-06T00:05:17.010Z,4.92
2019-01-06T00:08:05.208Z,5.43
2019-01-06T00:10:54.895Z,5.03
2019-01-06T00:13:43.332Z,5.22
2019-01-06T00:16:33.446Z,4.45
2019-01-06T00:19:22.935Z,5.25
2019-01-06T00:22:11.345Z,4.67
2019-01-06T00:24:59.574Z,5.53
2019-01-06T00:27:57.384Z,5.75
2019-01-06T00:30:49.804Z,5.03
2019-01-06T00:33:42.084Z,5.08
2019-01-06T00:36:31.643Z,5.40
2019-01-06T00:39:21.114Z,5.50
2019-01-06T01:12:09.160Z,5.35
2019-01-06T01:15:04.825Z,4.53
2019-01-06T01:17:54.428Z,5.50
2019-01-06T01:20:43.233Z,5.83
2019-01-06T01:23:28.671Z,6.08
2019-01-06T01:26:16.637Z,6.90
2019-01-06T01:29:15.342Z,6.55
2019-01-06T01:32:11.676Z,6.60
2019-01-06T01:35:04.803Z,5.90
2019-01-06T01:37:57.008Z,6.30
2019-01-06T01:40:39.239Z,6.35
2019-01-06T01:43:40.971Z,6.00
2019-01-06T01:46:39.335Z,7.20
2019-01-06T01:49:31.809Z,6.62
2019-01-06T01:52:24.016Z,7.20
2019-01-06T01:55:22.683Z,6.95
2019-01-06T01:58:10.715Z,6.87
2019-01-06T02:00:58.952Z,7.90
2019-01-06T02:03:41.764Z,7.12
2019-01-06T02:06:39.935Z,8.47
2019-01-06T02:09:45.016Z,7.80
2019-01-06T02:12:26.371Z,7.70
2019-01-06T02:15:14.468Z,9.05
2019-01-06T02:18:01.744Z,8.08
2019-01-06T02:20:53.461Z,8.45
2019-01-06T02:23:51.998Z,8.35
2019-01-06T02:26:41.476Z,8.30
2019-01-06T02:29:33.650Z,8.90
2019-01-06T02:32:36.180Z,9.08
2019-01-06T02:35:20.408Z,9.53
2019-01-06T02:38:10.357Z,9.63
2019-01-06T02:40:58.455Z,8.77
2019-01-06T02:43:56.831Z,9.87
2019-01-06T02:46:58.295Z,9.33
2019-01-06T02:49:46.458Z,8.93
2019-01-06T02:52:36.376Z,7.90
2019-01-06T02:55:25.005Z,8.53
2019-01-06T02:58:13.383Z,7.85
2019-01-06T03:01:01.523Z,8.13
2019-01-06T03:03:51.483Z,9.08
2019-01-06T03:06:40.935Z,8.68
2019-01-06T03:09:23.471Z,7.95
2019-01-06T03:12:21.017Z,7.03
2019-01-06T03:15:28.570Z,8.30
2019-01-06T03:18:26.995Z,7.42
2019-01-06T03:21:25.950Z,7.95
2019-01-06T03:24:26.603Z,7.20
2019-01-06T03:27:24.957Z,7.17
2019-01-06T03:30:20.552Z,6.70
2019-01-06T03:33:04.541Z,7.20
2019-01-06T03:36:09.351Z,7.75
2019-01-06T03:38:57.676Z,6.85
2019-01-06T03:41:59.445Z,7.40
2019-01-06T03:44:57.003Z,8.20
2019-01-06T03:47:45.312Z,6.97
2019-01-06T03:50:36.353Z,7.08
2019-01-06T03:53:37.339Z,7.30
2019-01-06T03:56:25.679Z,7.20
2019-01-06T03:59:06.793Z,6.57
2019-01-06T04:01:59.282Z,6.73
2019-01-06T04:04:47.760Z,6.62
2019-01-06T04:07:35.997Z,6.90
2019-01-06T04:10:44.186Z,7.75
2019-01-06T04:13:37.422Z,6.30
2019-01-06T04:16:37.194Z,6.72
2019-01-06T04:19:25.244Z,7.25
2019-01-06T04:22:26.807Z,7.12
2019-01-06T04:25:09.570Z,7.12
2019-01-06T04:28:01.863Z,7.10
2019-01-06T04:31:09.460Z,6.80
2019-01-06T04:33:57.558Z,5.58
2019-01-06T04:36:46.877Z,7.10
2019-01-06T04:39:42.235Z,7.67
2019-01-06T04:42:30.149Z,6.92
2019-01-06T04:45:19.547Z,7.70
2019-01-06T04:48:07.679Z,7.17
2019-01-06T04:50:57.211Z,5.97
2019-01-06T04:53:52.405Z,6.40
2019-01-06T04:56:41.830Z,6.08
2019-01-06T04:59:40.292Z,6.55
2019-01-06T05:02:45.136Z,6.47
2019-01-06T05:05:34.508Z,6.58
2019-01-06T05:08:22.658Z,7.30
2019-01-06T05:11:10.857Z,7.00
2019-01-06T05:14:09.438Z,7.00
2019-01-06T05:17:01.889Z,6.80
2019-01-06T05:19:58.291Z,7.12
2019-01-06T05:23:06.052Z,6.75
2019-01-06T05:25:55.522Z,7.00
2019-01-06T05:28:43.664Z,7.10
2019-01-06T05:31:32.042Z,6.83
2019-01-06T05:34:20.130Z,7.40
2019-01-06T05:37:12.657Z,7.28
2019-01-06T05:40:11.021Z,6.80
2019-01-06T05:42:59.132Z,7.33
2019-01-06T05:45:41.313Z,6.90
2019-01-06T05:48:43.313Z,6.00
2019-01-06T05:51:38.841Z,7.08
2019-01-06T05:54:26.915Z,6.30
2019-01-06T05:57:09.638Z,6.60
2019-01-06T06:00:14.431Z,6.92
2019-01-06T06:03:02.800Z,6.92
2019-01-06T06:06:02.505Z,8.13
2019-01-06T06:08:58.157Z,8.33
2019-01-06T06:11:59.606Z,7.77
2019-01-06T06:15:01.166Z,6.92
2019-01-06T06:18:05.518Z,7.42
2019-01-06T06:20:52.998Z,6.83
2019-01-06T06:23:38.146Z,8.03
2019-01-06T06:26:34.321Z,7.67
2019-01-06T06:29:37.456Z,8.45
2019-01-06T06:32:25.683Z,9.25
2019-01-06T06:35:13.217Z,7.33
2019-01-06T06:37:56.421Z,7.40
2019-01-06T06:40:44.672Z,8.05
2019-01-06T22:03:39.971Z,3.22
2019-01-06T22:06:28.264Z,3.42
2019-01-06T22:09:26.814Z,3.45
2019-01-06T22:12:14.794Z,5.05
2019-01-06T22:15:03.298Z,3.20
2019-01-06T22:18:11.085Z,3.95
2019-01-06T22:21:01.640Z,2.90
2019-01-06T22:23:57.188Z,2.40
2019-01-06T22:26:46.494Z,3.20
2019-01-06T22:29:34.563Z,2.75
2019-01-06T22:32:21.942Z,3.70
2019-01-06T22:35:24.651Z,3.33
2019-01-06T22:38:13.189Z,3.20
2019-01-06T22:41:05.373Z,3.30
2019-01-06T22:43:50.761Z,2.60
2019-01-06T22:46:43.322Z,3.22
2019-01-06T22:49:34.419Z,3.70
2019-01-06T22:52:24.422Z,3.27
2019-01-06T22:55:26.419Z,2.50
2019-01-06T22:58:22.763Z,2.30
2019-01-06T23:01:27.724Z,4.10
2019-01-06T23:04:08.696Z,2.30
2019-01-06T23:07:12.297Z,2.20
2019-01-06T23:10:20.228Z,3.00
2019-01-06T23:13:19.146Z,3.30
2019-01-06T23:16:07.454Z,2.05
2019-01-06T23:18:55.566Z,1.87
2019-01-06T23:21:43.658Z,2.95
2019-01-06T23:24:36.152Z,2.98
2019-01-06T23:27:23.286Z,2.50
2019-01-06T23:30:14.814Z,2.95
2019-01-06T23:33:03.148Z,2.30
2019-01-06T23:36:04.530Z,2.40
2019-01-06T23:38:54.369Z,3.10
2019-01-06T23:41:53.174Z,3.17
2019-01-06T23:44:42.541Z,2.30
2019-01-06T23:47:35.024Z,2.52
2019-01-06T23:50:24.841Z,2.37
2019-01-06T23:53:23.519Z,2.47
2019-01-06T23:56:18.031Z,2.80
2019-01-06T23:59:07.455Z,2.80
